createdAt,value
2018-12-13T00:01:20.455Z,5.86
2018-12-13T00:03:49.865Z,5.91
2018-12-13T00:06:19.023Z,6.00
2018-12-13T00:08:48.152Z,5.89
2018-12-13T00:11:17.292Z,5.95
2018-12-13T00:13:46.798Z,5.93
2018-12-13T00:16:16.242Z,5.91
2018-12-13T00:18:45.484Z,5.89
2018-12-13T00:21:14.804Z,5.91
2018-12-13T00:23:44.160Z,5.99
2018-12-13T00:26:13.384Z,6.05
2018-12-13T00:28:42.875Z,5.95
2018-12-13T00:31:12.271Z,5.97
2018-12-13T00:33:41.740Z,5.92
2018-12-13T00:36:11.032Z,5.91
2018-12-13T00:38:40.341Z,5.82
2018-12-13T00:41:09.656Z,5.80
2018-12-13T00:43:38.938Z,5.71
2018-12-13T00:46:08.463Z,5.64
2018-12-13T00:48:37.878Z,5.55
2018-12-13T00:51:07.269Z,5.30
2018-12-13T00:53:36.687Z,5.25
2018-12-13T00:56:06.171Z,4.86
2018-12-13T00:58:35.884Z,4.63
2018-12-13T01:01:05.577Z,4.48
2018-12-13T01:03:35.008Z,4.39
2018-12-13T01:06:04.944Z,4.30
2018-12-13T01:08:34.336Z,4.19
2018-12-13T01:11:03.842Z,4.28
2018-12-13T01:13:33.640Z,4.35
2018-12-13T01:16:03.251Z,4.30
2018-12-13T01:18:32.360Z,4.20
2018-12-13T01:21:01.686Z,4.27
2018-12-13T01:23:30.996Z,4.45
2018-12-13T01:26:01.375Z,4.47
2018-12-13T01:28:30.513Z,4.43
2018-12-13T01:30:59.688Z,4.60
2018-12-13T01:33:29.167Z,4.67
2018-12-13T01:35:58.626Z,4.71
2018-12-13T01:38:27.939Z,4.85
2018-12-13T01:40:57.080Z,4.88
2018-12-13T01:43:26.371Z,4.82
2018-12-13T01:45:55.578Z,4.64
2018-12-13T01:48:24.873Z,4.52
2018-12-13T01:50:54.079Z,4.45
2018-12-13T01:53:23.271Z,4.39
2018-12-13T01:55:52.468Z,4.45
2018-12-13T01:58:21.655Z,4.38
2018-12-13T02:00:51.069Z,4.43
2018-12-13T02:03:20.196Z,4.61
2018-12-13T02:05:49.401Z,4.60
2018-12-13T02:08:18.603Z,4.53
2018-12-13T02:10:47.955Z,4.55
2018-12-13T02:13:17.381Z,4.52
2018-12-13T02:15:46.720Z,4.47
2018-12-13T02:18:16.187Z,4.47
2018-12-13T02:20:45.584Z,4.48
2018-12-13T02:23:14.764Z,4.43
2018-12-13T02:25:44.031Z,4.55
2018-12-13T02:28:13.071Z,4.63
2018-12-13T02:30:42.369Z,4.67
2018-12-13T02:33:11.768Z,4.57
2018-12-13T02:35:41.203Z,4.46
2018-12-13T02:38:10.308Z,4.34
2018-12-13T02:40:39.799Z,4.30
2018-12-13T02:43:08.932Z,4.31
2018-12-13T02:45:38.181Z,4.31
2018-12-13T02:48:07.449Z,4.32
2018-12-13T02:50:36.796Z,4.25
2018-12-13T02:53:06.321Z,4.23
2018-12-13T02:55:35.595Z,4.18
2018-12-13T02:58:04.816Z,4.14
2018-12-13T03:00:34.075Z,4.12
2018-12-13T03:03:03.443Z,4.02
2018-12-13T03:05:32.934Z,4.02
2018-12-13T03:08:02.214Z,3.96
2018-12-13T03:10:31.560Z,3.86
2018-12-13T03:13:00.912Z,3.88
2018-12-13T03:15:30.139Z,3.84
2018-12-13T03:17:59.399Z,3.70
2018-12-13T03:20:28.525Z,3.64
2018-12-13T03:22:57.794Z,3.68
2018-12-13T03:25:26.979Z,3.70
2018-12-13T03:27:56.208Z,3.77
2018-12-13T03:30:25.524Z,3.88
2018-12-13T03:32:54.806Z,4.01
2018-12-13T03:35:24.179Z,3.97
2018-12-13T03:37:53.578Z,3.90
2018-12-13T03:40:22.749Z,3.95
2018-12-13T03:42:52.253Z,4.01
2018-12-13T03:45:21.481Z,4.15
2018-12-13T03:47:50.869Z,4.17
2018-12-13T03:50:20.085Z,4.23
2018-12-13T03:52:49.477Z,4.26
2018-12-13T03:55:20.913Z,4.31
2018-12-13T03:57:50.234Z,4.21
2018-12-13T04:00:19.300Z,4.10
2018-12-13T04:02:48.563Z,4.12
2018-12-13T04:05:17.806Z,4.14
2018-12-13T04:07:47.023Z,4.09
2018-12-13T04:10:16.405Z,4.17
2018-12-13T04:12:45.633Z,4.14
2018-12-13T04:15:14.941Z,4.21
2018-12-13T04:17:44.292Z,4.31
2018-12-13T04:20:13.632Z,4.28
2018-12-13T04:22:42.766Z,4.32
2018-12-13T04:25:12.073Z,4.26
2018-12-13T04:27:41.412Z,4.23
2018-12-13T04:30:10.836Z,4.40
2018-12-13T04:32:40.251Z,4.37
2018-12-13T04:35:09.537Z,4.43
2018-12-13T04:37:38.876Z,4.24
2018-12-13T04:40:08.088Z,4.04
2018-12-13T04:42:37.307Z,3.95
2018-12-13T04:45:06.863Z,3.80
2018-12-13T04:47:36.228Z,3.93
2018-12-13T04:50:06.535Z,3.74
2018-12-13T04:52:36.004Z,3.80
2018-12-13T04:55:05.429Z,3.51
2018-12-13T04:57:34.841Z,3.24
2018-12-13T05:00:04.043Z,3.01
2018-12-13T05:02:33.116Z,3.01
2018-12-13T05:05:02.502Z,3.05
2018-12-13T05:07:31.673Z,3.05
2018-12-13T05:10:00.995Z,3.32
2018-12-13T05:12:30.201Z,3.24
2018-12-13T05:14:59.580Z,3.26
2018-12-13T05:17:29.088Z,3.19
2018-12-13T05:19:58.506Z,3.19
2018-12-13T05:22:27.747Z,3.31
2018-12-13T05:24:57.547Z,3.32
2018-12-13T05:27:26.704Z,3.12
2018-12-13T05:29:56.103Z,3.05
2018-12-13T05:32:25.502Z,3.10
2018-12-13T05:34:54.717Z,2.97
2018-12-13T05:37:24.018Z,2.80
2018-12-13T05:39:53.464Z,2.81
2018-12-13T05:42:22.763Z,2.79
2018-12-13T05:44:52.012Z,2.64
2018-12-13T05:47:21.403Z,2.70
2018-12-13T05:49:50.719Z,2.80
2018-12-13T05:52:20.131Z,2.71
2018-12-13T05:54:49.577Z,2.89
2018-12-13T05:57:18.835Z,2.74
2018-12-13T05:59:48.188Z,2.81
2018-12-13T06:02:17.519Z,2.59
2018-12-13T06:04:46.969Z,2.84
2018-12-13T06:07:16.399Z,2.68
2018-12-13T06:09:45.643Z,2.96
2018-12-13T06:12:15.122Z,2.68
2018-12-13T06:14:44.514Z,2.91
2018-12-13T06:17:13.765Z,2.49
2018-12-13T06:19:42.888Z,2.53
2018-12-13T06:22:12.145Z,2.44
2018-12-13T06:24:41.464Z,2.52
2018-12-13T06:27:10.724Z,2.53
2018-12-13T06:29:43.080Z,2.73
2018-12-13T06:32:11.697Z,2.29
2018-12-13T06:34:41.114Z,2.50
2018-12-13T06:37:10.597Z,2.75
2018-12-13T06:39:39.948Z,2.52
2018-12-13T06:42:09.200Z,2.29
2018-12-13T06:44:38.783Z,2.63
2018-12-13T06:47:08.219Z,2.71
2018-12-13T06:49:37.718Z,2.72
2018-12-13T06:52:07.188Z,2.75
2018-12-13T06:54:36.542Z,2.93
2018-12-13T06:57:05.982Z,2.69
2018-12-13T06:59:35.391Z,2.56
2018-12-13T07:02:04.581Z,2.33
2018-12-13T07:04:33.827Z,2.57
2018-12-13T07:07:03.221Z,2.51
2018-12-13T07:09:32.768Z,2.47
2018-12-13T07:12:02.195Z,2.33
2018-12-13T07:14:31.648Z,2.11
2018-12-13T07:17:00.935Z,2.39
2018-12-13T07:19:30.434Z,2.43
2018-12-13T07:21:59.691Z,2.20
2018-12-13T07:24:29.024Z,2.07
2018-12-13T07:26:58.515Z,2.07
2018-12-13T07:29:28.156Z,2.29
2018-12-13T07:31:57.520Z,2.04
2018-12-13T07:34:27.171Z,1.95
2018-12-13T07:36:56.695Z,2.15
2018-12-13T07:39:26.077Z,2.17
2018-12-13T07:41:55.459Z,2.24
2018-12-13T07:44:25.189Z,2.32
2018-12-13T07:46:54.472Z,2.47
2018-12-13T07:49:24.100Z,2.28
2018-12-13T07:51:53.297Z,2.32
2018-12-13T07:54:22.616Z,2.15
2018-12-13T07:56:51.938Z,2.58
2018-12-13T07:59:21.364Z,2.58
2018-12-13T08:01:50.692Z,2.42
2018-12-13T08:04:19.949Z,2.43
2018-12-13T08:06:49.333Z,2.77
2018-12-13T08:09:18.499Z,2.71
2018-12-13T08:11:47.939Z,2.79
2018-12-13T08:14:17.178Z,2.43
2018-12-13T08:16:46.360Z,2.50
2018-12-13T08:19:15.440Z,2.46
2018-12-13T08:21:44.829Z,2.47
2018-12-13T08:24:14.192Z,2.36
2018-12-13T08:26:43.747Z,2.46
2018-12-13T08:29:13.232Z,2.60
2018-12-13T08:31:42.635Z,2.45
2018-12-13T08:34:12.023Z,2.55
2018-12-13T08:36:41.550Z,2.81
2018-12-13T08:39:10.836Z,2.68
2018-12-13T08:41:40.303Z,2.69
2018-12-13T08:44:09.603Z,2.80
2018-12-13T08:46:38.841Z,2.80
2018-12-13T08:49:08.133Z,3.12
2018-12-13T08:51:37.384Z,3.11
2018-12-13T08:54:06.556Z,3.22
2018-12-13T08:56:35.824Z,3.05
2018-12-13T08:59:05.063Z,3.36
2018-12-13T09:01:34.324Z,3.31
2018-12-13T09:04:03.647Z,3.55
2018-12-13T09:06:33.047Z,3.68
2018-12-13T09:09:02.235Z,3.83
2018-12-13T09:11:31.756Z,3.76
2018-12-13T09:14:00.998Z,3.57
2018-12-13T09:16:31.652Z,4.18
2018-12-13T09:19:01.130Z,3.98
2018-12-13T09:21:30.370Z,3.81
2018-12-13T09:23:59.636Z,4.27
2018-12-13T09:26:28.990Z,4.06
2018-12-13T09:28:58.782Z,4.39
2018-12-13T09:31:28.066Z,4.30
2018-12-13T09:33:57.272Z,4.35
2018-12-13T09:36:26.728Z,4.51
2018-12-13T09:38:56.036Z,4.31
2018-12-13T09:41:25.280Z,3.95
2018-12-13T09:43:54.647Z,3.98
2018-12-13T09:46:24.183Z,4.46
2018-12-13T09:48:53.600Z,4.79
2018-12-13T09:51:22.968Z,4.90
2018-12-13T09:53:52.355Z,4.61
2018-12-13T09:56:21.694Z,4.96
2018-12-13T09:58:50.904Z,4.76
2018-12-13T10:01:20.298Z,4.79
2018-12-13T10:03:49.825Z,4.69
2018-12-13T10:06:19.176Z,5.32
2018-12-13T10:08:48.705Z,5.42
2018-12-13T10:11:18.367Z,4.89
2018-12-13T10:13:48.043Z,5.01
2018-12-13T10:16:19.219Z,5.57
2018-12-13T10:18:50.088Z,5.70
2018-12-13T10:21:19.380Z,4.88
2018-12-13T10:23:48.698Z,4.78
2018-12-13T10:26:17.937Z,4.79
2018-12-13T10:28:47.344Z,4.69
2018-12-13T10:31:16.570Z,4.91
2018-12-13T10:33:45.956Z,5.15
2018-12-13T10:36:15.084Z,4.77
2018-12-13T10:38:44.420Z,4.37
2018-12-13T10:41:13.703Z,4.46
2018-12-13T10:43:43.053Z,4.36
2018-12-13T10:46:12.384Z,4.57
2018-12-13T10:48:41.740Z,5.41
2018-12-13T10:51:11.050Z,6.14
2018-12-13T10:53:40.444Z,6.23
2018-12-13T10:56:09.756Z,5.70
2018-12-13T10:58:39.537Z,5.74
2018-12-13T11:01:13.704Z,5.52
2018-12-13T11:03:43.063Z,5.46
2018-12-13T11:06:12.358Z,5.78
2018-12-13T11:08:41.736Z,5.17
2018-12-13T11:11:11.132Z,5.68
2018-12-13T11:13:40.395Z,5.54
2018-12-13T11:16:09.571Z,4.80
2018-12-13T11:18:38.975Z,4.64
2018-12-13T11:21:08.459Z,5.37
2018-12-13T11:23:37.828Z,5.20
2018-12-13T11:26:07.179Z,4.89
2018-12-13T11:28:47.168Z,4.80
2018-12-13T11:31:16.424Z,5.25
2018-12-13T11:33:45.973Z,4.39
2018-12-13T11:36:15.267Z,4.00
2018-12-13T11:38:44.690Z,3.81
2018-12-13T11:41:14.036Z,3.78
2018-12-13T11:43:43.335Z,3.39
2018-12-13T11:46:12.745Z,3.44
2018-12-13T11:48:42.094Z,3.28
2018-12-13T11:51:11.440Z,3.33
2018-12-13T11:53:40.860Z,3.34
2018-12-13T11:56:10.148Z,3.48
2018-12-13T11:58:39.316Z,3.64
2018-12-13T12:01:08.647Z,3.38
2018-12-13T12:03:37.981Z,3.40
2018-12-13T12:06:07.363Z,3.37
2018-12-13T12:08:36.816Z,3.23
2018-12-13T12:11:06.258Z,3.18
2018-12-13T12:13:35.674Z,3.20
2018-12-13T12:16:05.221Z,3.39
2018-12-13T12:18:34.669Z,3.08
2018-12-13T12:21:03.871Z,3.15
2018-12-13T12:23:32.985Z,3.08
2018-12-13T12:26:02.664Z,3.25
2018-12-13T12:28:31.812Z,3.33
2018-12-13T12:31:01.172Z,3.25
2018-12-13T12:33:30.406Z,3.17
2018-12-13T12:35:59.678Z,3.20
2018-12-13T12:38:29.112Z,3.48
2018-12-13T12:40:58.541Z,3.46
2018-12-13T12:43:27.778Z,3.39
2018-12-13T12:45:57.007Z,3.27
2018-12-13T12:48:26.424Z,3.61
2018-12-13T12:50:55.455Z,3.36
2018-12-13T12:53:24.768Z,3.45
2018-12-13T12:55:53.785Z,3.70
2018-12-13T12:58:23.027Z,3.68
2018-12-13T13:00:52.360Z,3.83
2018-12-13T13:03:21.660Z,3.74
2018-12-13T13:05:50.971Z,3.92
2018-12-13T13:08:20.272Z,3.67
2018-12-13T13:10:49.751Z,3.93
2018-12-13T13:13:19.082Z,4.21
2018-12-13T13:15:48.665Z,3.98
2018-12-13T13:18:18.100Z,3.81
2018-12-13T13:20:47.461Z,3.87
2018-12-13T13:23:16.998Z,3.83
2018-12-13T13:25:46.309Z,3.66
2018-12-13T13:28:15.569Z,3.60
2018-12-13T13:30:44.900Z,3.66
2018-12-13T13:33:14.305Z,3.90
2018-12-13T13:35:43.893Z,4.08
2018-12-13T13:38:14.480Z,3.82
2018-12-13T13:40:43.904Z,3.83
2018-12-13T13:43:13.013Z,3.74
2018-12-13T13:45:42.340Z,3.57
2018-12-13T13:48:11.808Z,3.55
2018-12-13T13:50:41.255Z,3.64
2018-12-13T13:53:10.584Z,3.48
2018-12-13T13:55:39.884Z,3.36
2018-12-13T13:58:09.189Z,3.45
2018-12-13T14:00:38.626Z,3.46
2018-12-13T14:03:08.152Z,3.59
2018-12-13T14:05:37.488Z,3.82
2018-12-13T14:08:06.892Z,3.62
2018-12-13T14:10:36.335Z,3.59
2018-12-13T14:13:05.685Z,3.54
2018-12-13T14:15:35.220Z,3.63
2018-12-13T14:18:05.031Z,3.26
2018-12-13T14:20:34.488Z,3.29
2018-12-13T14:23:04.262Z,3.45
2018-12-13T14:25:33.339Z,3.32
2018-12-13T14:28:02.572Z,3.32
2018-12-13T14:30:31.980Z,3.30
2018-12-13T14:33:01.063Z,3.33
2018-12-13T14:35:30.096Z,3.22
2018-12-13T14:37:59.260Z,3.09
2018-12-13T14:40:28.499Z,2.88
2018-12-13T14:42:57.643Z,2.93
2018-12-13T14:45:26.978Z,3.12
2018-12-13T14:47:56.251Z,3.25
2018-12-13T14:50:25.719Z,3.38
2018-12-13T14:52:54.955Z,3.22
2018-12-13T14:55:23.935Z,2.73
2018-12-13T14:57:53.207Z,2.72
2018-12-13T15:00:22.520Z,2.79
2018-12-13T15:02:51.824Z,2.86
2018-12-13T15:05:21.467Z,2.89
2018-12-13T15:07:51.064Z,2.77
2018-12-13T15:10:21.400Z,2.90
2018-12-13T15:12:50.787Z,2.90
2018-12-13T15:15:19.943Z,2.76
2018-12-13T15:17:49.244Z,2.86
2018-12-13T15:20:18.511Z,2.71
2018-12-13T15:22:47.718Z,2.77
2018-12-13T15:25:18.115Z,2.72
2018-12-13T15:27:47.356Z,2.64
2018-12-13T15:30:16.688Z,2.73
2018-12-13T15:32:45.923Z,2.79
2018-12-13T15:35:15.491Z,2.79
2018-12-13T15:37:44.769Z,2.72
2018-12-13T15:40:13.876Z,2.75
2018-12-13T15:42:43.076Z,2.86
2018-12-13T15:45:12.439Z,2.80
2018-12-13T15:47:41.878Z,2.78
2018-12-13T15:50:11.244Z,2.66
2018-12-13T15:52:40.672Z,2.75
2018-12-13T15:55:09.963Z,2.61
2018-12-13T15:57:39.376Z,2.53
2018-12-13T16:00:09.442Z,2.65
2018-12-13T16:02:39.029Z,2.57
2018-12-13T16:05:08.247Z,2.66
2018-12-13T16:07:37.720Z,2.60
2018-12-13T16:10:06.993Z,2.68
2018-12-13T16:12:36.309Z,2.63
2018-12-13T16:15:05.902Z,2.70
2018-12-13T16:17:35.111Z,2.69
2018-12-13T16:20:04.368Z,2.72
2018-12-13T16:22:34.324Z,2.65
2018-12-13T16:25:03.723Z,2.69
2018-12-13T16:27:32.927Z,2.57
2018-12-13T16:30:02.265Z,2.59
2018-12-13T16:32:31.217Z,2.57
2018-12-13T16:35:00.802Z,2.77
2018-12-13T16:37:30.423Z,2.59
2018-12-13T16:39:59.955Z,2.65
2018-12-13T16:42:29.668Z,2.61
2018-12-13T16:44:59.043Z,2.66
2018-12-13T16:47:28.567Z,2.77
2018-12-13T16:49:58.370Z,2.82
2018-12-13T16:52:27.692Z,2.85
2018-12-13T16:54:56.975Z,3.06
2018-12-13T16:57:26.517Z,3.13
2018-12-13T16:59:55.742Z,2.88
2018-12-13T17:02:25.175Z,2.88
2018-12-13T17:04:54.585Z,2.67
2018-12-13T17:07:24.112Z,2.83
2018-12-13T17:09:53.460Z,2.86
2018-12-13T17:12:22.988Z,2.87
2018-12-13T17:14:52.421Z,2.98
2018-12-13T17:17:21.666Z,3.25
2018-12-13T17:19:50.987Z,3.29
2018-12-13T17:22:20.198Z,2.77
2018-12-13T17:24:49.703Z,2.75
2018-12-13T17:27:19.227Z,2.99
2018-12-13T17:29:49.014Z,3.25
2018-12-13T17:32:18.550Z,3.21
2018-12-13T17:34:47.926Z,3.26
2018-12-13T17:37:17.311Z,3.15
2018-12-13T17:39:46.986Z,3.08
2018-12-13T17:42:16.304Z,3.46
2018-12-13T17:44:45.652Z,3.38
2018-12-13T17:47:14.936Z,3.49
2018-12-13T17:49:44.725Z,3.16
2018-12-13T17:52:14.228Z,3.17
2018-12-13T17:54:44.402Z,2.97
2018-12-13T17:57:14.012Z,2.96
2018-12-13T17:59:43.522Z,3.07
2018-12-13T18:02:13.124Z,3.08
2018-12-13T18:04:42.604Z,2.86
2018-12-13T18:07:12.537Z,2.76
2018-12-13T18:09:42.128Z,2.80
2018-12-13T18:12:11.901Z,2.69
2018-12-13T18:14:41.282Z,2.72
2018-12-13T18:17:10.502Z,2.63
2018-12-13T18:19:39.839Z,2.65
2018-12-13T18:22:09.241Z,2.82
2018-12-13T18:24:38.596Z,2.74
2018-12-13T18:27:07.883Z,2.81
2018-12-13T18:29:38.014Z,2.79
2018-12-13T18:32:07.208Z,2.79
2018-12-13T18:34:36.367Z,2.81
2018-12-13T18:37:05.876Z,2.74
2018-12-13T18:39:35.208Z,2.93
2018-12-13T18:42:04.524Z,3.07
2018-12-13T18:44:33.928Z,3.16
2018-12-13T18:47:03.515Z,3.02
2018-12-13T18:49:33.209Z,2.91
2018-12-13T18:52:03.246Z,2.84
2018-12-13T18:54:32.769Z,2.86
2018-12-13T18:57:02.218Z,3.18
2018-12-13T18:59:31.405Z,3.69
2018-12-13T19:02:00.735Z,3.54
2018-12-13T19:04:30.189Z,3.80
2018-12-13T19:06:59.823Z,3.39
2018-12-13T19:09:29.064Z,3.53
2018-12-13T19:11:58.451Z,3.71
2018-12-13T19:14:27.767Z,3.06
2018-12-13T19:16:57.008Z,3.45
2018-12-13T19:19:26.292Z,3.57
2018-12-13T19:21:55.548Z,3.33
2018-12-13T19:24:25.059Z,2.90
2018-12-13T19:26:55.167Z,2.81
2018-12-13T19:29:24.777Z,2.92
2018-12-13T19:31:54.454Z,2.91
2018-12-13T19:34:24.060Z,3.05
2018-12-13T19:36:53.461Z,3.25
2018-12-13T19:39:22.676Z,2.85
2018-12-13T19:41:51.884Z,2.63
2018-12-13T19:44:21.887Z,2.81
2018-12-13T19:46:51.555Z,2.72
2018-12-13T19:49:21.374Z,2.62
2018-12-13T19:51:51.165Z,2.64
2018-12-13T19:54:21.174Z,2.66
2018-12-13T19:56:50.995Z,2.79
2018-12-13T19:59:20.494Z,2.71
2018-12-13T20:01:49.946Z,2.89
2018-12-13T20:04:19.245Z,2.94
2018-12-13T20:06:48.892Z,3.05
2018-12-13T20:09:18.136Z,2.88
2018-12-13T20:11:47.531Z,2.88
2018-12-13T20:14:16.907Z,2.95
2018-12-13T20:16:46.328Z,2.86
2018-12-13T20:19:15.923Z,2.99
2018-12-13T20:21:45.366Z,2.91
2018-12-13T20:24:14.992Z,3.01
2018-12-13T20:26:44.131Z,3.36
2018-12-13T20:29:13.999Z,3.55
2018-12-13T20:31:43.180Z,3.20
2018-12-13T20:34:13.647Z,3.16
2018-12-13T20:36:42.786Z,3.01
2018-12-13T20:39:12.048Z,2.89
2018-12-13T20:41:41.342Z,2.75
2018-12-13T20:44:10.560Z,2.89
2018-12-13T20:46:39.656Z,2.69
2018-12-13T20:49:08.878Z,2.80
2018-12-13T20:51:39.044Z,2.81
2018-12-13T20:54:08.144Z,2.65
2018-12-13T20:56:37.441Z,2.63
2018-12-13T20:59:07.768Z,2.64
2018-12-13T21:01:37.099Z,2.65
2018-12-13T21:04:06.372Z,2.73
2018-12-13T21:06:40.473Z,2.74
2018-12-13T21:09:16.516Z,2.74
2018-12-13T21:11:47.368Z,2.67
2018-12-13T21:14:16.494Z,2.56
2018-12-13T21:16:47.220Z,2.57
2018-12-13T21:19:17.391Z,2.71
2018-12-13T21:21:46.791Z,2.65
2018-12-13T21:24:16.036Z,2.58
2018-12-13T21:26:45.440Z,2.69
2018-12-13T21:29:14.740Z,2.66
2018-12-13T21:31:44.300Z,2.69
2018-12-13T21:34:13.679Z,2.65
2018-12-13T21:36:43.088Z,2.64
2018-12-13T21:39:12.549Z,2.56
2018-12-13T21:41:42.052Z,2.61
2018-12-13T21:44:11.348Z,2.74
2018-12-13T21:46:40.676Z,2.62
2018-12-13T21:49:09.802Z,2.60
2018-12-13T21:51:39.220Z,2.42
2018-12-13T21:54:08.500Z,2.44
2018-12-13T21:56:37.961Z,2.47
2018-12-13T21:59:07.270Z,2.50
2018-12-13T22:01:36.836Z,2.42
2018-12-13T22:04:06.089Z,2.42
2018-12-13T22:06:35.578Z,2.42
2018-12-13T22:09:06.131Z,2.32
2018-12-13T22:11:35.428Z,2.40
2018-12-13T22:14:04.707Z,2.39
2018-12-13T22:16:34.140Z,2.47
2018-12-13T22:19:03.505Z,2.46
2018-12-13T22:21:33.024Z,2.34
2018-12-13T22:24:02.612Z,2.36
2018-12-13T22:26:32.015Z,2.29
2018-12-13T22:29:01.378Z,2.41
2018-12-13T22:31:31.238Z,2.39
2018-12-13T22:34:00.804Z,2.30
2018-12-13T22:36:30.457Z,2.16
2018-12-13T22:38:59.968Z,2.29
2018-12-13T22:41:29.569Z,2.33
2018-12-13T22:43:59.382Z,2.37
2018-12-13T22:46:28.980Z,2.23
2018-12-13T22:48:58.588Z,2.14
2018-12-13T22:51:28.108Z,2.09
2018-12-13T22:53:57.742Z,2.11
2018-12-13T22:56:27.140Z,2.19
2018-12-13T22:58:56.728Z,2.17
2018-12-13T23:01:26.402Z,2.29
2018-12-13T23:03:56.101Z,2.31
2018-12-13T23:06:25.725Z,2.29
2018-12-13T23:08:55.434Z,2.37
2018-12-13T23:11:25.025Z,2.32
2018-12-13T23:13:54.719Z,2.42
2018-12-13T23:16:24.488Z,2.40
2018-12-13T23:18:53.988Z,2.42
2018-12-13T23:21:23.446Z,2.50
2018-12-13T23:23:53.138Z,2.60
2018-12-13T23:26:22.628Z,2.68
2018-12-13T23:28:52.351Z,2.65
2018-12-13T23:31:21.782Z,2.68
2018-12-13T23:33:51.515Z,2.48
2018-12-13T23:36:21.010Z,2.47
2018-12-13T23:38:50.647Z,2.63
2018-12-13T23:41:20.044Z,2.50
2018-12-13T23:43:49.684Z,2.48
2018-12-13T23:46:19.189Z,2.48
2018-12-13T23:48:48.798Z,2.50
2018-12-13T23:51:18.072Z,2.36
2018-12-13T23:53:47.491Z,2.38
2018-12-13T23:56:16.985Z,2.36
2018-12-13T23:58:46.898Z,2.24
